EWG6TA EGGD-EDDK
Flight info
| Callsign | EWG6TA |
|---|---|
| Flight time | N/A |
| Altitude | 35000 |
| Route | YORQI DCT NUCHU L607 KONAN UL607 SPI T857 DENOV T861 ERUKI T856 DEPOK |
| Aircraft | A320/M-SDE3FGHIRWY/LB1 |
Departure
| Time | N/A |
|---|---|
| Airport | Bristol Airport (EGGD) |
Arrival
| Time | 2026-04-21 20:36 |
|---|---|
| Airport | Cologne Bonn Airport (EDDK) |
| Time | Latitude | Longitude | Altitude | Speed | Heading |
|---|---|---|---|---|---|
| 2026-04-21 20:28 | 50.87356 | 6.64454 | 17633 ft | 358 kts | 62° |
| 2026-04-21 20:28 | 50.88518 | 6.67905 | 16622 ft | 353 kts | 62° |
| 2026-04-21 20:28 | 50.89625 | 6.71197 | 15687 ft | 347 kts | 62° |
| 2026-04-21 20:28 | 50.90746 | 6.74536 | 14558 ft | 339 kts | 63° |
| 2026-04-21 20:29 | 50.92032 | 6.77615 | 12880 ft | 334 kts | 45° |
| 2026-04-21 20:29 | 50.93970 | 6.79671 | 11091 ft | 337 kts | 32° |
| 2026-04-21 20:29 | 50.95962 | 6.81496 | 9938 ft | 322 kts | 33° |
| 2026-04-21 20:29 | 50.97853 | 6.83318 | 9259 ft | 306 kts | 34° |
| 2026-04-21 20:30 | 50.99651 | 6.85053 | 7456 ft | 306 kts | 33° |
| 2026-04-21 20:30 | 51.01448 | 6.87077 | 4834 ft | 328 kts | 48° |
| 2026-04-21 20:30 | 51.02528 | 6.90171 | 3818 ft | 307 kts | 78° |
| 2026-04-21 20:30 | 51.02464 | 6.93373 | 3465 ft | 281 kts | 109° |
| 2026-04-21 20:31 | 51.01420 | 6.95807 | 3277 ft | 257 kts | 134° |
| 2026-04-21 20:31 | 50.99996 | 6.97263 | 3156 ft | 237 kts | 161° |
| 2026-04-21 20:31 | 50.98469 | 6.97852 | 3019 ft | 212 kts | 153° |
| 2026-04-21 20:31 | 50.97410 | 6.99176 | 2817 ft | 186 kts | 128° |
| 2026-04-21 20:32 | 50.96539 | 7.00534 | 2599 ft | 166 kts | 133° |
| 2026-04-21 20:32 | 50.95730 | 7.01717 | 2372 ft | 150 kts | 132° |
| 2026-04-21 20:32 | 50.95005 | 7.02774 | 2179 ft | 136 kts | 131° |
| 2026-04-21 20:32 | 50.94321 | 7.03773 | 1997 ft | 132 kts | 131° |
| 2026-04-21 20:33 | 50.93652 | 7.04750 | 1815 ft | 130 kts | 131° |
| 2026-04-21 20:33 | 50.92982 | 7.05728 | 1636 ft | 131 kts | 131° |
| 2026-04-21 20:33 | 50.92308 | 7.06710 | 1461 ft | 132 kts | 132° |
| 2026-04-21 20:33 | 50.91629 | 7.07698 | 1261 ft | 133 kts | 133° |
| 2026-04-21 20:34 | 50.90940 | 7.08700 | 1077 ft | 135 kts | 134° |
| 2026-04-21 20:34 | 50.90571 | 7.09236 | 972 ft | 136 kts | 134° |
| 2026-04-21 20:34 | 50.90332 | 7.09583 | 893 ft | 136 kts | 135° |
| 2026-04-21 20:34 | 50.89632 | 7.10614 | 683 ft | 136 kts | 135° |
| 2026-04-21 20:35 | 50.88935 | 7.11616 | 511 ft | 137 kts | 135° |
| 2026-04-21 20:35 | 50.88232 | 7.12633 | 338 ft | 136 kts | 134° |
| 2026-04-21 20:35 | 50.87537 | 7.13627 | 251 ft | 129 kts | 134° |
| 2026-04-21 20:35 | 50.86995 | 7.14432 | 256 ft | 81 kts | 137° |
| 2026-04-21 20:36 | 50.86704 | 7.14856 | 270 ft | 35 kts | 136° |
| 2026-04-21 20:36 | 50.86531 | 7.15102 | 278 ft | 32 kts | 136° |
| 2026-04-21 20:36 | 50.86356 | 7.15282 | 285 ft | 29 kts | 158° |
| 2026-04-21 20:36 | 50.86179 | 7.15350 | 293 ft | 18 kts | 168° |
| 2026-04-21 20:37 | 50.86099 | 7.15337 | 290 ft | 10 kts | 207° |
| 2026-04-21 20:37 | 50.86043 | 7.15195 | 291 ft | 24 kts | 275° |
| 2026-04-21 20:37 | 50.86151 | 7.14981 | 286 ft | 27 kts | 317° |
| 2026-04-21 20:37 | 50.86297 | 7.14771 | 278 ft | 26 kts | 317° |
| 2026-04-21 20:38 | 50.86444 | 7.14558 | 270 ft | 30 kts | 317° |
| 2026-04-21 20:38 | 50.86578 | 7.14365 | 262 ft | 24 kts | 316° |
| 2026-04-21 20:38 | 50.86703 | 7.14181 | 258 ft | 19 kts | 316° |
| 2026-04-21 20:38 | 50.86821 | 7.14072 | 255 ft | 20 kts | 319° |
| 2026-04-21 20:39 | 50.86932 | 7.13912 | 249 ft | 25 kts | 319° |
| 2026-04-21 20:39 | 50.87074 | 7.13706 | 241 ft | 30 kts | 318° |
| 2026-04-21 20:39 | 50.87234 | 7.13474 | 235 ft | 30 kts | 317° |
| 2026-04-21 20:39 | 50.87301 | 7.13370 | 232 ft | 0 kts | 315° |
| 2026-04-21 20:40 | 50.87303 | 7.13368 | 232 ft | 5 kts | 315° |
| 2026-04-21 20:40 | 50.87360 | 7.13289 | 232 ft | 11 kts | 318° |
| 2026-04-21 20:40 | 50.87415 | 7.13212 | 232 ft | 10 kts | 319° |
| 2026-04-21 20:40 | 50.87461 | 7.13143 | 232 ft | 9 kts | 316° |
| 2026-04-21 20:41 | 50.87502 | 7.13083 | 232 ft | 7 kts | 317° |
| 2026-04-21 20:41 | 50.87548 | 7.13016 | 232 ft | 10 kts | 317° |
| 2026-04-21 20:41 | 50.87599 | 7.12945 | 232 ft | 11 kts | 318° |
| 2026-04-21 20:41 | 50.87688 | 7.12815 | 232 ft | 24 kts | 316° |
| 2026-04-21 20:42 | 50.87811 | 7.12639 | 232 ft | 18 kts | 321° |
| 2026-04-21 20:42 | 50.87914 | 7.12606 | 234 ft | 15 kts | 339° |
| 2026-04-21 20:42 | 50.87954 | 7.12529 | 232 ft | 7 kts | 255° |
| 2026-04-21 20:42 | 50.87940 | 7.12483 | 233 ft | 0 kts | 244° |
| 2026-04-21 20:43 | 50.87936 | 7.12465 | 232 ft | 3 kts | 257° |
| 2026-04-21 20:43 | 50.87936 | 7.12459 | 232 ft | 0 kts | 259° |